Fort Russell, Illinois
Current Conditions -  °F | °C
As of 4:50 PM on Saturday 22 Nov 2014 (Local Time) from KALN Reporting Station
Scattered Clouds Scattered Clouds  
Wind Chill: 11°   Ceiling: Unl
Heat Index: 11°   Visibility: 10mi
Dew Point:   Wind: 131mph
Humidity: 88%   Direction: 190°S
Pressure: 29.96"   Gusts: NA
Location:  38.9045°N, 90.0089°W
Report Text: KALN 222250Z 190114KT 10SM SCT080 11/09 A2996
Loading
Personal Weather Stations






























Interactive Weather Map New forecast layout! Learn more

10-Day Weather Forecast

Advertisements
Track Severe Weather on mobile